sensor_id;sensor_type;location;lat;lon;timestamp;P1;durP1;ratioP1;P2;durP2;ratioP2
6463;SDS011;3265;42.694;23.282;2023-09-19T00:01:43;6.72;;;5.20;;
6463;SDS011;3265;42.694;23.282;2023-09-19T00:04:12;7.20;;;4.97;;
6463;SDS011;3265;42.694;23.282;2023-09-19T00:06:39;5.50;;;4.63;;
6463;SDS011;3265;42.694;23.282;2023-09-19T00:09:07;5.53;;;4.40;;
6463;SDS011;3265;42.694;23.282;2023-09-19T00:11:46;6.13;;;4.90;;
6463;SDS011;3265;42.694;23.282;2023-09-19T00:14:16;7.28;;;4.82;;
6463;SDS011;3265;42.694;23.282;2023-09-19T00:19:38;8.85;;;5.00;;
6463;SDS011;3265;42.694;23.282;2023-09-19T00:22:07;5.50;;;4.70;;
6463;SDS011;3265;42.694;23.282;2023-09-19T00:24:34;5.53;;;4.47;;
6463;SDS011;3265;42.694;23.282;2023-09-19T00:27:01;6.18;;;4.72;;
6463;SDS011;3265;42.694;23.282;2023-09-19T00:29:29;7.13;;;5.30;;
6463;SDS011;3265;42.694;23.282;2023-09-19T00:31:56;8.82;;;4.95;;
6463;SDS011;3265;42.694;23.282;2023-09-19T00:34:24;7.50;;;4.93;;
6463;SDS011;3265;42.694;23.282;2023-09-19T00:36:52;7.43;;;5.03;;
6463;SDS011;3265;42.694;23.282;2023-09-19T00:39:19;7.53;;;4.75;;
6463;SDS011;3265;42.694;23.282;2023-09-19T00:41:47;10.35;;;5.32;;
6463;SDS011;3265;42.694;23.282;2023-09-19T00:44:14;10.55;;;5.03;;
6463;SDS011;3265;42.694;23.282;2023-09-19T00:46:42;7.10;;;5.18;;
6463;SDS011;3265;42.694;23.282;2023-09-19T00:49:12;9.60;;;4.82;;
6463;SDS011;3265;42.694;23.282;2023-09-19T00:51:40;7.00;;;4.75;;
6463;SDS011;3265;42.694;23.282;2023-09-19T00:54:12;8.02;;;4.95;;
6463;SDS011;3265;42.694;23.282;2023-09-19T00:56:43;6.75;;;4.97;;
6463;SDS011;3265;42.694;23.282;2023-09-19T00:59:10;6.47;;;5.10;;
6463;SDS011;3265;42.694;23.282;2023-09-19T01:01:38;9.13;;;5.05;;
6463;SDS011;3265;42.694;23.282;2023-09-19T01:04:05;8.07;;;5.00;;
6463;SDS011;3265;42.694;23.282;2023-09-19T01:06:33;9.20;;;4.82;;
6463;SDS011;3265;42.694;23.282;2023-09-19T01:09:02;9.27;;;4.82;;
6463;SDS011;3265;42.694;23.282;2023-09-19T01:11:32;11.63;;;5.60;;
6463;SDS011;3265;42.694;23.282;2023-09-19T01:14:08;5.97;;;5.00;;
6463;SDS011;3265;42.694;23.282;2023-09-19T01:16:48;9.27;;;5.13;;
6463;SDS011;3265;42.694;23.282;2023-09-19T01:19:36;7.25;;;5.32;;
6463;SDS011;3265;42.694;23.282;2023-09-19T01:22:37;9.90;;;5.38;;
6463;SDS011;3265;42.694;23.282;2023-09-19T01:25:20;7.55;;;5.55;;
6463;SDS011;3265;42.694;23.282;2023-09-19T01:28:34;8.32;;;5.55;;
6463;SDS011;3265;42.694;23.282;2023-09-19T01:31:13;10.73;;;5.05;;
6463;SDS011;3265;42.694;23.282;2023-09-19T01:33:54;10.98;;;5.75;;
6463;SDS011;3265;42.694;23.282;2023-09-19T01:36:26;10.63;;;5.32;;
6463;SDS011;3265;42.694;23.282;2023-09-19T01:38:54;7.50;;;5.10;;
6463;SDS011;3265;42.694;23.282;2023-09-19T01:41:26;6.93;;;4.78;;
6463;SDS011;3265;42.694;23.282;2023-09-19T01:43:59;9.27;;;5.45;;
6463;SDS011;3265;42.694;23.282;2023-09-19T01:46:34;8.23;;;5.50;;
6463;SDS011;3265;42.694;23.282;2023-09-19T01:49:18;7.63;;;5.40;;
6463;SDS011;3265;42.694;23.282;2023-09-19T01:51:56;7.13;;;5.38;;
6463;SDS011;3265;42.694;23.282;2023-09-19T01:54:32;6.97;;;5.57;;
6463;SDS011;3265;42.694;23.282;2023-09-19T01:57:05;12.57;;;5.78;;
6463;SDS011;3265;42.694;23.282;2023-09-19T01:59:48;9.65;;;6.20;;
6463;SDS011;3265;42.694;23.282;2023-09-19T02:02:20;8.20;;;5.68;;
6463;SDS011;3265;42.694;23.282;2023-09-19T02:04:48;8.35;;;5.65;;
6463;SDS011;3265;42.694;23.282;2023-09-19T02:07:15;10.35;;;6.00;;
6463;SDS011;3265;42.694;23.282;2023-09-19T02:09:43;8.40;;;5.85;;
6463;SDS011;3265;42.694;23.282;2023-09-19T02:12:09;8.85;;;5.68;;
6463;SDS011;3265;42.694;23.282;2023-09-19T02:14:36;8.50;;;5.97;;
6463;SDS011;3265;42.694;23.282;2023-09-19T02:17:03;9.03;;;5.67;;
6463;SDS011;3265;42.694;23.282;2023-09-19T02:19:33;7.70;;;5.93;;
6463;SDS011;3265;42.694;23.282;2023-09-19T02:22:01;11.57;;;6.55;;
6463;SDS011;3265;42.694;23.282;2023-09-19T02:24:32;14.15;;;6.10;;
6463;SDS011;3265;42.694;23.282;2023-09-19T02:27:00;8.38;;;6.22;;
6463;SDS011;3265;42.694;23.282;2023-09-19T02:29:29;7.90;;;6.25;;
6463;SDS011;3265;42.694;23.282;2023-09-19T02:31:56;10.32;;;5.85;;
6463;SDS011;3265;42.694;23.282;2023-09-19T02:34:23;14.80;;;6.57;;
6463;SDS011;3265;42.694;23.282;2023-09-19T02:36:52;12.60;;;7.43;;
6463;SDS011;3265;42.694;23.282;2023-09-19T02:39:21;12.75;;;6.78;;
6463;SDS011;3265;42.694;23.282;2023-09-19T02:41:48;12.52;;;7.68;;
6463;SDS011;3265;42.694;23.282;2023-09-19T02:44:15;11.50;;;7.40;;
6463;SDS011;3265;42.694;23.282;2023-09-19T02:46:42;12.77;;;7.47;;
6463;SDS011;3265;42.694;23.282;2023-09-19T02:49:09;10.67;;;6.90;;
6463;SDS011;3265;42.694;23.282;2023-09-19T02:51:38;10.10;;;7.13;;
6463;SDS011;3265;42.694;23.282;2023-09-19T02:54:07;11.13;;;7.33;;
6463;SDS011;3265;42.694;23.282;2023-09-19T02:56:34;12.18;;;7.30;;
6463;SDS011;3265;42.694;23.282;2023-09-19T02:59:02;11.57;;;7.43;;
6463;SDS011;3265;42.694;23.282;2023-09-19T03:01:29;13.63;;;7.60;;
6463;SDS011;3265;42.694;23.282;2023-09-19T03:03:57;12.30;;;7.63;;
6463;SDS011;3265;42.694;23.282;2023-09-19T03:06:24;13.37;;;7.47;;
6463;SDS011;3265;42.694;23.282;2023-09-19T03:08:51;14.67;;;7.23;;
6463;SDS011;3265;42.694;23.282;2023-09-19T03:11:20;12.07;;;7.47;;
6463;SDS011;3265;42.694;23.282;2023-09-19T03:13:50;16.27;;;7.90;;
6463;SDS011;3265;42.694;23.282;2023-09-19T03:16:18;15.27;;;7.67;;
6463;SDS011;3265;42.694;23.282;2023-09-19T03:18:46;16.00;;;8.13;;
6463;SDS011;3265;42.694;23.282;2023-09-19T03:21:13;13.03;;;8.13;;
6463;SDS011;3265;42.694;23.282;2023-09-19T03:23:40;15.57;;;8.60;;
6463;SDS011;3265;42.694;23.282;2023-09-19T03:26:10;13.90;;;7.47;;
6463;SDS011;3265;42.694;23.282;2023-09-19T03:28:39;15.17;;;8.07;;
6463;SDS011;3265;42.694;23.282;2023-09-19T03:31:06;22.13;;;8.90;;
6463;SDS011;3265;42.694;23.282;2023-09-19T03:33:33;18.53;;;8.70;;
6463;SDS011;3265;42.694;23.282;2023-09-19T03:36:01;20.37;;;8.83;;
6463;SDS011;3265;42.694;23.282;2023-09-19T03:38:30;19.03;;;8.50;;
6463;SDS011;3265;42.694;23.282;2023-09-19T03:40:57;16.97;;;8.60;;
6463;SDS011;3265;42.694;23.282;2023-09-19T03:43:24;16.50;;;8.40;;
6463;SDS011;3265;42.694;23.282;2023-09-19T03:45:52;16.97;;;8.93;;
6463;SDS011;3265;42.694;23.282;2023-09-19T03:48:20;19.63;;;9.03;;
6463;SDS011;3265;42.694;23.282;2023-09-19T03:50:48;19.13;;;9.47;;
6463;SDS011;3265;42.694;23.282;2023-09-19T03:53:15;26.20;;;11.10;;
6463;SDS011;3265;42.694;23.282;2023-09-19T03:55:41;27.60;;;10.83;;
6463;SDS011;3265;42.694;23.282;2023-09-19T03:58:11;20.07;;;10.67;;
6463;SDS011;3265;42.694;23.282;2023-09-19T04:00:37;20.83;;;11.10;;
6463;SDS011;3265;42.694;23.282;2023-09-19T04:03:06;22.73;;;10.30;;
6463;SDS011;3265;42.694;23.282;2023-09-19T04:05:33;23.37;;;10.47;;
6463;SDS011;3265;42.694;23.282;2023-09-19T04:08:00;22.57;;;10.13;;
6463;SDS011;3265;42.694;23.282;2023-09-19T04:10:26;19.80;;;9.77;;
6463;SDS011;3265;42.694;23.282;2023-09-19T04:12:54;17.97;;;9.53;;
6463;SDS011;3265;42.694;23.282;2023-09-19T04:15:23;20.13;;;10.30;;
6463;SDS011;3265;42.694;23.282;2023-09-19T04:17:50;18.90;;;10.03;;
6463;SDS011;3265;42.694;23.282;2023-09-19T04:20:19;16.33;;;9.23;;
6463;SDS011;3265;42.694;23.282;2023-09-19T04:22:48;15.60;;;9.17;;
6463;SDS011;3265;42.694;23.282;2023-09-19T04:25:14;16.53;;;9.00;;
6463;SDS011;3265;42.694;23.282;2023-09-19T04:27:43;16.50;;;9.40;;
6463;SDS011;3265;42.694;23.282;2023-09-19T04:30:11;16.00;;;9.03;;
6463;SDS011;3265;42.694;23.282;2023-09-19T04:32:40;14.50;;;9.53;;
6463;SDS011;3265;42.694;23.282;2023-09-19T04:35:07;15.87;;;10.80;;
6463;SDS011;3265;42.694;23.282;2023-09-19T04:37:38;19.97;;;10.03;;
6463;SDS011;3265;42.694;23.282;2023-09-19T04:40:06;24.77;;;10.13;;
6463;SDS011;3265;42.694;23.282;2023-09-19T04:42:38;17.10;;;9.57;;
6463;SDS011;3265;42.694;23.282;2023-09-19T04:45:06;21.40;;;10.30;;
6463;SDS011;3265;42.694;23.282;2023-09-19T04:47:35;23.27;;;9.80;;
6463;SDS011;3265;42.694;23.282;2023-09-19T04:50:04;20.77;;;10.03;;
6463;SDS011;3265;42.694;23.282;2023-09-19T04:52:41;27.30;;;10.10;;
6463;SDS011;3265;42.694;23.282;2023-09-19T04:55:10;20.50;;;9.60;;
6463;SDS011;3265;42.694;23.282;2023-09-19T04:57:42;25.77;;;10.37;;
6463;SDS011;3265;42.694;23.282;2023-09-19T05:00:11;20.50;;;10.43;;
6463;SDS011;3265;42.694;23.282;2023-09-19T05:02:40;22.30;;;10.50;;
6463;SDS011;3265;42.694;23.282;2023-09-19T05:05:10;19.33;;;10.53;;
6463;SDS011;3265;42.694;23.282;2023-09-19T05:07:43;20.73;;;11.53;;
6463;SDS011;3265;42.694;23.282;2023-09-19T05:10:15;21.23;;;10.63;;
6463;SDS011;3265;42.694;23.282;2023-09-19T05:12:46;18.73;;;11.00;;
6463;SDS011;3265;42.694;23.282;2023-09-19T05:15:16;20.07;;;11.37;;
6463;SDS011;3265;42.694;23.282;2023-09-19T05:17:50;21.20;;;11.13;;
6463;SDS011;3265;42.694;23.282;2023-09-19T05:20:17;22.27;;;10.23;;
6463;SDS011;3265;42.694;23.282;2023-09-19T05:22:51;23.63;;;10.03;;
6463;SDS011;3265;42.694;23.282;2023-09-19T05:25:26;16.70;;;9.37;;
6463;SDS011;3265;42.694;23.282;2023-09-19T05:27:54;18.13;;;9.70;;
6463;SDS011;3265;42.694;23.282;2023-09-19T05:30:22;26.03;;;10.13;;
6463;SDS011;3265;42.694;23.282;2023-09-19T05:32:49;20.27;;;9.33;;
6463;SDS011;3265;42.694;23.282;2023-09-19T05:35:18;15.13;;;8.80;;
6463;SDS011;3265;42.694;23.282;2023-09-19T05:37:46;16.10;;;9.43;;
6463;SDS011;3265;42.694;23.282;2023-09-19T05:40:15;20.70;;;9.67;;
6463;SDS011;3265;42.694;23.282;2023-09-19T05:42:42;22.87;;;10.03;;
6463;SDS011;3265;42.694;23.282;2023-09-19T05:45:10;17.30;;;10.00;;
6463;SDS011;3265;42.694;23.282;2023-09-19T05:47:38;28.17;;;10.00;;
6463;SDS011;3265;42.694;23.282;2023-09-19T05:50:08;21.05;;;10.00;;
6463;SDS011;3265;42.694;23.282;2023-09-19T05:52:36;18.70;;;9.43;;
6463;SDS011;3265;42.694;23.282;2023-09-19T05:55:03;15.07;;;9.20;;
6463;SDS011;3265;42.694;23.282;2023-09-19T05:57:34;18.27;;;9.90;;
6463;SDS011;3265;42.694;23.282;2023-09-19T06:00:01;13.70;;;9.63;;
6463;SDS011;3265;42.694;23.282;2023-09-19T06:02:29;13.95;;;8.88;;
6463;SDS011;3265;42.694;23.282;2023-09-19T06:04:56;14.55;;;9.27;;
6463;SDS011;3265;42.694;23.282;2023-09-19T06:07:23;18.42;;;9.30;;
6463;SDS011;3265;42.694;23.282;2023-09-19T06:09:51;13.27;;;8.67;;
6463;SDS011;3265;42.694;23.282;2023-09-19T06:12:18;18.25;;;7.80;;
6463;SDS011;3265;42.694;23.282;2023-09-19T06:14:46;18.05;;;7.57;;
6463;SDS011;3265;42.694;23.282;2023-09-19T06:17:14;15.07;;;6.97;;
6463;SDS011;3265;42.694;23.282;2023-09-19T06:19:42;12.32;;;7.13;;
6463;SDS011;3265;42.694;23.282;2023-09-19T06:22:14;9.80;;;6.72;;
6463;SDS011;3265;42.694;23.282;2023-09-19T06:24:43;13.23;;;7.45;;
6463;SDS011;3265;42.694;23.282;2023-09-19T06:27:10;11.02;;;7.18;;
6463;SDS011;3265;42.694;23.282;2023-09-19T06:29:36;9.27;;;6.90;;
6463;SDS011;3265;42.694;23.282;2023-09-19T06:32:08;11.95;;;7.50;;
6463;SDS011;3265;42.694;23.282;2023-09-19T06:34:35;13.88;;;6.82;;
6463;SDS011;3265;42.694;23.282;2023-09-19T06:37:02;15.38;;;7.47;;
6463;SDS011;3265;42.694;23.282;2023-09-19T06:39:31;10.32;;;6.85;;
6463;SDS011;3265;42.694;23.282;2023-09-19T06:41:58;16.33;;;7.43;;
6463;SDS011;3265;42.694;23.282;2023-09-19T06:44:26;7.97;;;5.88;;
6463;SDS011;3265;42.694;23.282;2023-09-19T06:46:54;11.10;;;6.18;;
6463;SDS011;3265;42.694;23.282;2023-09-19T06:49:23;13.48;;;5.95;;
6463;SDS011;3265;42.694;23.282;2023-09-19T06:51:49;11.38;;;6.78;;
6463;SDS011;3265;42.694;23.282;2023-09-19T06:54:18;14.00;;;6.60;;
6463;SDS011;3265;42.694;23.282;2023-09-19T06:56:45;15.50;;;6.50;;
6463;SDS011;3265;42.694;23.282;2023-09-19T06:59:12;9.35;;;5.57;;
6463;SDS011;3265;42.694;23.282;2023-09-19T07:01:39;13.95;;;6.55;;
6463;SDS011;3265;42.694;23.282;2023-09-19T07:04:06;9.20;;;6.40;;
6463;SDS011;3265;42.694;23.282;2023-09-19T07:06:35;9.95;;;5.65;;
6463;SDS011;3265;42.694;23.282;2023-09-19T07:09:01;10.23;;;5.80;;
6463;SDS011;3265;42.694;23.282;2023-09-19T07:11:29;11.00;;;5.97;;
6463;SDS011;3265;42.694;23.282;2023-09-19T07:13:57;10.27;;;5.68;;
6463;SDS011;3265;42.694;23.282;2023-09-19T07:16:24;9.50;;;6.35;;
6463;SDS011;3265;42.694;23.282;2023-09-19T07:18:54;8.75;;;5.35;;
6463;SDS011;3265;42.694;23.282;2023-09-19T07:21:22;9.20;;;5.68;;
6463;SDS011;3265;42.694;23.282;2023-09-19T07:23:51;8.93;;;5.70;;
6463;SDS011;3265;42.694;23.282;2023-09-19T07:26:17;8.40;;;5.40;;
6463;SDS011;3265;42.694;23.282;2023-09-19T07:28:44;10.77;;;6.60;;
6463;SDS011;3265;42.694;23.282;2023-09-19T07:31:11;11.05;;;6.25;;
6463;SDS011;3265;42.694;23.282;2023-09-19T07:33:39;10.82;;;5.80;;
6463;SDS011;3265;42.694;23.282;2023-09-19T07:36:09;10.50;;;6.00;;
6463;SDS011;3265;42.694;23.282;2023-09-19T07:38:38;14.48;;;5.75;;
6463;SDS011;3265;42.694;23.282;2023-09-19T07:41:07;16.67;;;6.35;;
6463;SDS011;3265;42.694;23.282;2023-09-19T07:43:35;9.57;;;5.82;;
6463;SDS011;3265;42.694;23.282;2023-09-19T07:46:03;8.25;;;5.68;;
6463;SDS011;3265;42.694;23.282;2023-09-19T07:48:32;8.43;;;5.88;;
6463;SDS011;3265;42.694;23.282;2023-09-19T07:51:01;12.52;;;6.00;;
6463;SDS011;3265;42.694;23.282;2023-09-19T07:53:28;12.18;;;6.13;;
6463;SDS011;3265;42.694;23.282;2023-09-19T07:56:01;11.95;;;6.05;;
6463;SDS011;3265;42.694;23.282;2023-09-19T07:58:30;10.63;;;6.30;;
6463;SDS011;3265;42.694;23.282;2023-09-19T08:01:02;11.40;;;5.78;;
6463;SDS011;3265;42.694;23.282;2023-09-19T08:03:29;10.48;;;5.78;;
6463;SDS011;3265;42.694;23.282;2023-09-19T08:05:56;10.23;;;6.05;;
6463;SDS011;3265;42.694;23.282;2023-09-19T08:08:24;12.45;;;6.25;;
6463;SDS011;3265;42.694;23.282;2023-09-19T08:10:52;9.80;;;6.20;;
6463;SDS011;3265;42.694;23.282;2023-09-19T08:13:21;11.68;;;6.15;;
6463;SDS011;3265;42.694;23.282;2023-09-19T08:15:50;10.70;;;6.07;;
6463;SDS011;3265;42.694;23.282;2023-09-19T08:18:18;11.55;;;6.30;;
6463;SDS011;3265;42.694;23.282;2023-09-19T08:20:49;13.20;;;6.65;;
6463;SDS011;3265;42.694;23.282;2023-09-19T08:23:17;12.23;;;7.30;;
6463;SDS011;3265;42.694;23.282;2023-09-19T08:25:45;9.23;;;6.22;;
6463;SDS011;3265;42.694;23.282;2023-09-19T08:28:12;15.77;;;6.90;;
6463;SDS011;3265;42.694;23.282;2023-09-19T08:30:43;10.98;;;6.03;;
6463;SDS011;3265;42.694;23.282;2023-09-19T08:33:11;12.85;;;6.00;;
6463;SDS011;3265;42.694;23.282;2023-09-19T08:35:40;13.48;;;6.47;;
6463;SDS011;3265;42.694;23.282;2023-09-19T08:38:08;15.20;;;6.30;;
6463;SDS011;3265;42.694;23.282;2023-09-19T08:40:37;14.68;;;6.55;;
6463;SDS011;3265;42.694;23.282;2023-09-19T08:43:05;15.00;;;7.13;;
6463;SDS011;3265;42.694;23.282;2023-09-19T08:45:33;12.55;;;6.50;;
6463;SDS011;3265;42.694;23.282;2023-09-19T08:48:03;16.15;;;6.45;;
6463;SDS011;3265;42.694;23.282;2023-09-19T08:50:43;12.43;;;6.20;;
6463;SDS011;3265;42.694;23.282;2023-09-19T08:53:26;11.60;;;5.80;;
6463;SDS011;3265;42.694;23.282;2023-09-19T08:55:57;12.32;;;6.43;;
6463;SDS011;3265;42.694;23.282;2023-09-19T08:58:31;12.25;;;6.55;;
6463;SDS011;3265;42.694;23.282;2023-09-19T09:01:06;8.65;;;6.15;;
6463;SDS011;3265;42.694;23.282;2023-09-19T09:03:37;10.68;;;6.07;;
6463;SDS011;3265;42.694;23.282;2023-09-19T09:06:07;11.23;;;5.88;;
6463;SDS011;3265;42.694;23.282;2023-09-19T09:08:36;15.05;;;6.28;;
6463;SDS011;3265;42.694;23.282;2023-09-19T09:11:05;11.35;;;6.45;;
6463;SDS011;3265;42.694;23.282;2023-09-19T09:13:33;10.68;;;6.20;;
6463;SDS011;3265;42.694;23.282;2023-09-19T09:16:02;12.40;;;6.82;;
6463;SDS011;3265;42.694;23.282;2023-09-19T09:18:29;11.15;;;6.80;;
6463;SDS011;3265;42.694;23.282;2023-09-19T09:20:57;13.43;;;7.32;;
6463;SDS011;3265;42.694;23.282;2023-09-19T09:23:24;12.85;;;6.90;;
6463;SDS011;3265;42.694;23.282;2023-09-19T09:25:54;8.50;;;6.13;;
6463;SDS011;3265;42.694;23.282;2023-09-19T09:28:24;10.25;;;5.93;;
6463;SDS011;3265;42.694;23.282;2023-09-19T09:30:53;16.63;;;6.00;;
6463;SDS011;3265;42.694;23.282;2023-09-19T09:33:20;10.57;;;6.28;;
6463;SDS011;3265;42.694;23.282;2023-09-19T09:35:51;9.35;;;6.00;;
6463;SDS011;3265;42.694;23.282;2023-09-19T09:38:23;13.07;;;6.32;;
6463;SDS011;3265;42.694;23.282;2023-09-19T09:40:53;14.88;;;6.18;;
6463;SDS011;3265;42.694;23.282;2023-09-19T09:43:26;10.98;;;6.55;;
6463;SDS011;3265;42.694;23.282;2023-09-19T09:46:11;10.05;;;6.05;;
6463;SDS011;3265;42.694;23.282;2023-09-19T09:48:56;11.70;;;6.43;;
6463;SDS011;3265;42.694;23.282;2023-09-19T09:51:38;12.93;;;6.35;;
6463;SDS011;3265;42.694;23.282;2023-09-19T09:54:12;9.25;;;5.32;;
6463;SDS011;3265;42.694;23.282;2023-09-19T09:56:52;14.38;;;7.03;;
6463;SDS011;3265;42.694;23.282;2023-09-19T09:59:35;17.23;;;6.90;;
6463;SDS011;3265;42.694;23.282;2023-09-19T10:02:18;10.98;;;6.85;;
6463;SDS011;3265;42.694;23.282;2023-09-19T10:04:51;10.75;;;6.57;;
6463;SDS011;3265;42.694;23.282;2023-09-19T10:07:24;13.43;;;6.63;;
6463;SDS011;3265;42.694;23.282;2023-09-19T10:09:58;12.88;;;6.82;;
6463;SDS011;3265;42.694;23.282;2023-09-19T10:12:36;13.43;;;5.88;;
6463;SDS011;3265;42.694;23.282;2023-09-19T10:15:08;9.13;;;5.97;;
6463;SDS011;3265;42.694;23.282;2023-09-19T10:17:42;16.90;;;6.45;;
6463;SDS011;3265;42.694;23.282;2023-09-19T10:20:14;13.68;;;6.00;;
6463;SDS011;3265;42.694;23.282;2023-09-19T10:23:03;9.02;;;6.00;;
6463;SDS011;3265;42.694;23.282;2023-09-19T10:25:37;10.18;;;6.20;;
6463;SDS011;3265;42.694;23.282;2023-09-19T10:28:05;11.82;;;6.20;;
6463;SDS011;3265;42.694;23.282;2023-09-19T10:30:36;14.60;;;6.05;;
6463;SDS011;3265;42.694;23.282;2023-09-19T10:33:08;13.60;;;6.18;;
6463;SDS011;3265;42.694;23.282;2023-09-19T10:35:37;10.05;;;5.80;;
6463;SDS011;3265;42.694;23.282;2023-09-19T10:38:06;17.27;;;6.63;;
6463;SDS011;3265;42.694;23.282;2023-09-19T10:40:34;7.55;;;6.05;;
6463;SDS011;3265;42.694;23.282;2023-09-19T10:43:08;15.70;;;6.15;;
6463;SDS011;3265;42.694;23.282;2023-09-19T10:45:38;14.68;;;6.18;;
6463;SDS011;3265;42.694;23.282;2023-09-19T10:48:06;9.75;;;5.78;;
6463;SDS011;3265;42.694;23.282;2023-09-19T10:50:35;12.57;;;5.97;;
6463;SDS011;3265;42.694;23.282;2023-09-19T10:53:10;10.02;;;5.93;;
6463;SDS011;3265;42.694;23.282;2023-09-19T10:55:40;13.35;;;6.22;;
6463;SDS011;3265;42.694;23.282;2023-09-19T10:58:06;7.70;;;5.93;;
6463;SDS011;3265;42.694;23.282;2023-09-19T11:00:49;11.32;;;7.10;;
6463;SDS011;3265;42.694;23.282;2023-09-19T11:03:21;16.48;;;7.22;;
6463;SDS011;3265;42.694;23.282;2023-09-19T11:06:02;14.75;;;6.57;;
6463;SDS011;3265;42.694;23.282;2023-09-19T11:08:51;9.25;;;6.10;;
6463;SDS011;3265;42.694;23.282;2023-09-19T11:11:42;11.13;;;5.82;;
6463;SDS011;3265;42.694;23.282;2023-09-19T11:14:14;10.43;;;6.15;;
6463;SDS011;3265;42.694;23.282;2023-09-19T11:23:21;10.68;;;5.70;;
6463;SDS011;3265;42.694;23.282;2023-09-19T11:25:50;9.88;;;5.85;;
6463;SDS011;3265;42.694;23.282;2023-09-19T11:28:30;9.50;;;5.90;;
6463;SDS011;3265;42.694;23.282;2023-09-19T11:30:58;7.68;;;5.70;;
6463;SDS011;3265;42.694;23.282;2023-09-19T11:33:25;13.77;;;6.45;;
6463;SDS011;3265;42.694;23.282;2023-09-19T11:36:03;12.68;;;5.88;;
6463;SDS011;3265;42.694;23.282;2023-09-19T11:41:36;14.23;;;6.63;;
6463;SDS011;3265;42.694;23.282;2023-09-19T11:47:03;9.00;;;5.63;;
6463;SDS011;3265;42.694;23.282;2023-09-19T11:49:32;15.25;;;6.80;;
6463;SDS011;3265;42.694;23.282;2023-09-19T11:52:00;8.18;;;5.45;;
6463;SDS011;3265;42.694;23.282;2023-09-19T11:54:30;8.55;;;5.80;;
6463;SDS011;3265;42.694;23.282;2023-09-19T11:56:58;9.07;;;5.88;;
6463;SDS011;3265;42.694;23.282;2023-09-19T11:59:26;16.42;;;6.28;;
6463;SDS011;3265;42.694;23.282;2023-09-19T12:01:56;10.85;;;6.20;;
6463;SDS011;3265;42.694;23.282;2023-09-19T12:04:33;8.77;;;6.07;;
6463;SDS011;3265;42.694;23.282;2023-09-19T12:07:03;15.85;;;6.78;;
6463;SDS011;3265;42.694;23.282;2023-09-19T12:09:31;13.93;;;6.25;;
6463;SDS011;3265;42.694;23.282;2023-09-19T12:11:58;18.35;;;6.25;;
6463;SDS011;3265;42.694;23.282;2023-09-19T12:14:25;61.20;;;11.45;;
6463;SDS011;3265;42.694;23.282;2023-09-19T12:16:53;33.67;;;7.75;;
6463;SDS011;3265;42.694;23.282;2023-09-19T12:19:22;93.53;;;12.25;;
6463;SDS011;3265;42.694;23.282;2023-09-19T12:21:59;134.27;;;18.55;;
6463;SDS011;3265;42.694;23.282;2023-09-19T12:24:29;14.45;;;6.32;;
6463;SDS011;3265;42.694;23.282;2023-09-19T12:27:00;12.63;;;5.85;;
6463;SDS011;3265;42.694;23.282;2023-09-19T12:29:30;14.48;;;5.93;;
6463;SDS011;3265;42.694;23.282;2023-09-19T12:32:00;8.13;;;5.75;;
6463;SDS011;3265;42.694;23.282;2023-09-19T12:34:30;11.52;;;5.57;;
6463;SDS011;3265;42.694;23.282;2023-09-19T12:37:03;7.68;;;5.30;;
6463;SDS011;3265;42.694;23.282;2023-09-19T12:39:36;12.13;;;5.85;;
6463;SDS011;3265;42.694;23.282;2023-09-19T12:42:04;11.27;;;5.35;;
6463;SDS011;3265;42.694;23.282;2023-09-19T12:44:34;12.02;;;5.38;;
6463;SDS011;3265;42.694;23.282;2023-09-19T12:47:09;10.75;;;5.20;;
6463;SDS011;3265;42.694;23.282;2023-09-19T12:52:44;16.08;;;6.13;;
6463;SDS011;3265;42.694;23.282;2023-09-19T12:55:22;41.88;;;8.15;;
6463;SDS011;3265;42.694;23.282;2023-09-19T12:58:00;131.95;;;17.13;;
6463;SDS011;3265;42.694;23.282;2023-09-19T13:00:34;96.53;;;14.10;;
6463;SDS011;3265;42.694;23.282;2023-09-19T13:03:25;32.65;;;9.20;;
6463;SDS011;3265;42.694;23.282;2023-09-19T13:05:54;9.35;;;5.35;;
6463;SDS011;3265;42.694;23.282;2023-09-19T13:08:26;14.00;;;5.35;;
6463;SDS011;3265;42.694;23.282;2023-09-19T13:11:04;12.73;;;5.75;;
6463;SDS011;3265;42.694;23.282;2023-09-19T13:13:35;26.42;;;5.97;;
6463;SDS011;3265;42.694;23.282;2023-09-19T13:16:03;10.65;;;5.07;;
6463;SDS011;3265;42.694;23.282;2023-09-19T13:18:42;13.35;;;5.30;;
6463;SDS011;3265;42.694;23.282;2023-09-19T13:21:15;10.30;;;5.38;;
6463;SDS011;3265;42.694;23.282;2023-09-19T13:23:51;15.38;;;5.10;;
6463;SDS011;3265;42.694;23.282;2023-09-19T13:26:19;7.10;;;5.03;;
6463;SDS011;3265;42.694;23.282;2023-09-19T13:28:47;9.82;;;4.93;;
6463;SDS011;3265;42.694;23.282;2023-09-19T13:31:15;6.03;;;4.63;;
6463;SDS011;3265;42.694;23.282;2023-09-19T13:33:45;14.10;;;5.20;;
6463;SDS011;3265;42.694;23.282;2023-09-19T13:36:12;11.43;;;5.60;;
6463;SDS011;3265;42.694;23.282;2023-09-19T13:38:39;15.60;;;6.10;;
6463;SDS011;3265;42.694;23.282;2023-09-19T13:41:08;23.63;;;5.40;;
6463;SDS011;3265;42.694;23.282;2023-09-19T13:43:36;11.02;;;5.15;;
6463;SDS011;3265;42.694;23.282;2023-09-19T13:46:03;22.73;;;5.50;;
6463;SDS011;3265;42.694;23.282;2023-09-19T13:48:32;13.82;;;5.65;;
6463;SDS011;3265;42.694;23.282;2023-09-19T13:51:01;20.60;;;5.80;;
6463;SDS011;3265;42.694;23.282;2023-09-19T13:53:29;15.82;;;5.13;;
6463;SDS011;3265;42.694;23.282;2023-09-19T13:55:56;10.57;;;5.43;;
6463;SDS011;3265;42.694;23.282;2023-09-19T13:58:23;14.23;;;5.72;;
6463;SDS011;3265;42.694;23.282;2023-09-19T14:00:50;10.52;;;5.72;;
6463;SDS011;3265;42.694;23.282;2023-09-19T14:03:20;12.40;;;5.82;;
6463;SDS011;3265;42.694;23.282;2023-09-19T14:05:47;9.32;;;5.10;;
6463;SDS011;3265;42.694;23.282;2023-09-19T14:08:18;21.88;;;5.93;;
6463;SDS011;3265;42.694;23.282;2023-09-19T14:10:45;17.35;;;5.82;;
6463;SDS011;3265;42.694;23.282;2023-09-19T14:13:14;18.52;;;5.60;;
6463;SDS011;3265;42.694;23.282;2023-09-19T14:15:40;17.30;;;6.43;;
6463;SDS011;3265;42.694;23.282;2023-09-19T14:18:07;8.80;;;5.00;;
6463;SDS011;3265;42.694;23.282;2023-09-19T14:20:37;9.18;;;5.50;;
6463;SDS011;3265;42.694;23.282;2023-09-19T14:23:05;10.77;;;6.00;;
6463;SDS011;3265;42.694;23.282;2023-09-19T14:25:35;11.98;;;5.90;;
6463;SDS011;3265;42.694;23.282;2023-09-19T14:28:03;15.70;;;5.70;;
6463;SDS011;3265;42.694;23.282;2023-09-19T14:30:32;16.77;;;5.95;;
6463;SDS011;3265;42.694;23.282;2023-09-19T14:32:59;7.90;;;5.40;;
6463;SDS011;3265;42.694;23.282;2023-09-19T14:35:26;7.47;;;5.50;;
6463;SDS011;3265;42.694;23.282;2023-09-19T14:37:53;7.88;;;5.78;;
6463;SDS011;3265;42.694;23.282;2023-09-19T14:40:20;8.23;;;5.90;;
6463;SDS011;3265;42.694;23.282;2023-09-19T14:42:49;10.88;;;5.88;;
6463;SDS011;3265;42.694;23.282;2023-09-19T14:45:15;22.05;;;7.15;;
6463;SDS011;3265;42.694;23.282;2023-09-19T14:47:43;11.63;;;5.80;;
6463;SDS011;3265;42.694;23.282;2023-09-19T14:50:10;11.75;;;6.40;;
6463;SDS011;3265;42.694;23.282;2023-09-19T14:52:38;14.02;;;6.43;;
6463;SDS011;3265;42.694;23.282;2023-09-19T14:55:06;11.80;;;6.47;;
6463;SDS011;3265;42.694;23.282;2023-09-19T14:57:34;14.90;;;6.78;;
6463;SDS011;3265;42.694;23.282;2023-09-19T15:00:07;8.85;;;6.60;;
6463;SDS011;3265;42.694;23.282;2023-09-19T15:02:37;14.77;;;6.50;;
6463;SDS011;3265;42.694;23.282;2023-09-19T15:05:05;18.70;;;6.90;;
6463;SDS011;3265;42.694;23.282;2023-09-19T15:07:33;16.42;;;6.72;;
6463;SDS011;3265;42.694;23.282;2023-09-19T15:10:02;33.22;;;7.15;;
6463;SDS011;3265;42.694;23.282;2023-09-19T15:12:32;14.90;;;6.30;;
6463;SDS011;3265;42.694;23.282;2023-09-19T15:15:00;12.85;;;6.03;;
6463;SDS011;3265;42.694;23.282;2023-09-19T15:17:28;12.65;;;6.80;;
6463;SDS011;3265;42.694;23.282;2023-09-19T15:19:55;14.52;;;6.65;;
6463;SDS011;3265;42.694;23.282;2023-09-19T15:22:22;15.02;;;6.43;;
6463;SDS011;3265;42.694;23.282;2023-09-19T15:24:49;11.57;;;7.10;;
6463;SDS011;3265;42.694;23.282;2023-09-19T15:27:16;13.18;;;6.80;;